CheckWX is a tool to help pilots better visualize weather data.  It is not intended as a substitute for an official pre-flight weather briefing.

16:57:59 UTC

OISS TAF
Shiraz Shahid Dastghaib International Airport
Shiraz, Iran
TAF OISS 181130Z 1812/1918 30008KT 8000 NSC TEMPO 1812/1816 30018KT

Jun-18@
12:00 UTC

Jun-18 @ 12:00 UTC

Jun-19@
18:00 UTC

Jun-19 @ 18:00 UTC

TAF OISS 181130Z 1812/1918 30008KT 8000 NSC
Wind
  • 300° at 8 KTS
Cloud Levels
  • No significant clouds

Jun-18@
12:00 UTC

Jun-18 @ 12:00 UTC

Jun-18@
16:00 UTC

Jun-18 @ 16:00 UTC

TEMPO 1812/1816 30018KT

Expired

Wind
  • 300° at 18 KTS